sensor_id;sensor_type;location;lat;lon;timestamp;P1;durP1;ratioP1;P2;durP2;ratioP2
32236;SDS011;18726;44.732;10.550;2022-07-11T00:00:14;3.92;;;3.42;;
32236;SDS011;18726;44.732;10.550;2022-07-11T00:03:18;3.58;;;3.15;;
32236;SDS011;18726;44.732;10.550;2022-07-11T00:06:23;3.90;;;3.60;;
32236;SDS011;18726;44.732;10.550;2022-07-11T00:09:26;3.22;;;3.03;;
32236;SDS011;18726;44.732;10.550;2022-07-11T00:12:30;7.65;;;4.05;;
32236;SDS011;18726;44.732;10.550;2022-07-11T00:15:34;6.53;;;3.90;;
32236;SDS011;18726;44.732;10.550;2022-07-11T00:18:38;5.45;;;4.05;;
32236;SDS011;18726;44.732;10.550;2022-07-11T00:21:42;4.75;;;3.90;;
32236;SDS011;18726;44.732;10.550;2022-07-11T00:24:46;4.55;;;3.72;;
32236;SDS011;18726;44.732;10.550;2022-07-11T00:27:49;9.13;;;4.22;;
32236;SDS011;18726;44.732;10.550;2022-07-11T00:30:53;6.55;;;4.20;;
32236;SDS011;18726;44.732;10.550;2022-07-11T00:33:58;5.78;;;3.85;;
32236;SDS011;18726;44.732;10.550;2022-07-11T00:37:02;3.58;;;3.13;;
32236;SDS011;18726;44.732;10.550;2022-07-11T00:40:06;4.28;;;3.17;;
32236;SDS011;18726;44.732;10.550;2022-07-11T00:43:09;3.58;;;3.25;;
32236;SDS011;18726;44.732;10.550;2022-07-11T00:46:14;3.65;;;3.13;;
32236;SDS011;18726;44.732;10.550;2022-07-11T00:49:17;4.75;;;3.13;;
32236;SDS011;18726;44.732;10.550;2022-07-11T00:52:22;3.80;;;2.85;;
32236;SDS011;18726;44.732;10.550;2022-07-11T00:55:26;3.45;;;3.15;;
32236;SDS011;18726;44.732;10.550;2022-07-11T00:58:31;3.72;;;3.40;;
32236;SDS011;18726;44.732;10.550;2022-07-11T01:01:37;3.90;;;3.08;;
32236;SDS011;18726;44.732;10.550;2022-07-11T01:04:41;4.47;;;3.65;;
32236;SDS011;18726;44.732;10.550;2022-07-11T01:07:45;3.58;;;3.15;;
32236;SDS011;18726;44.732;10.550;2022-07-11T01:10:49;3.80;;;3.50;;
32236;SDS011;18726;44.732;10.550;2022-07-11T01:13:52;7.25;;;4.40;;
32236;SDS011;18726;44.732;10.550;2022-07-11T01:16:56;5.15;;;4.63;;
32236;SDS011;18726;44.732;10.550;2022-07-11T01:20:00;5.45;;;2.97;;
32236;SDS011;18726;44.732;10.550;2022-07-11T01:23:07;3.70;;;3.08;;
32236;SDS011;18726;44.732;10.550;2022-07-11T01:26:11;8.20;;;3.95;;
32236;SDS011;18726;44.732;10.550;2022-07-11T01:29:15;3.50;;;2.90;;
32236;SDS011;18726;44.732;10.550;2022-07-11T01:32:19;3.13;;;2.90;;
32236;SDS011;18726;44.732;10.550;2022-07-11T01:35:23;4.40;;;4.00;;
32236;SDS011;18726;44.732;10.550;2022-07-11T01:38:27;3.58;;;3.25;;
32236;SDS011;18726;44.732;10.550;2022-07-11T01:41:31;2.95;;;2.75;;
32236;SDS011;18726;44.732;10.550;2022-07-11T01:44:35;5.15;;;3.65;;
32236;SDS011;18726;44.732;10.550;2022-07-11T01:47:39;4.00;;;3.70;;
32236;SDS011;18726;44.732;10.550;2022-07-11T01:50:43;5.63;;;3.70;;
32236;SDS011;18726;44.732;10.550;2022-07-11T01:53:47;4.13;;;3.72;;
32236;SDS011;18726;44.732;10.550;2022-07-11T01:56:51;5.03;;;3.97;;
32236;SDS011;18726;44.732;10.550;2022-07-11T01:59:54;6.75;;;3.90;;
32236;SDS011;18726;44.732;10.550;2022-07-11T02:02:57;3.75;;;3.45;;
32236;SDS011;18726;44.732;10.550;2022-07-11T02:06:01;4.75;;;3.13;;
32236;SDS011;18726;44.732;10.550;2022-07-11T02:09:05;3.80;;;3.53;;
32236;SDS011;18726;44.732;10.550;2022-07-11T02:12:09;4.65;;;3.50;;
32236;SDS011;18726;44.732;10.550;2022-07-11T02:15:13;3.40;;;3.10;;
32236;SDS011;18726;44.732;10.550;2022-07-11T02:18:17;5.75;;;4.15;;
32236;SDS011;18726;44.732;10.550;2022-07-11T02:21:21;8.82;;;4.43;;
32236;SDS011;18726;44.732;10.550;2022-07-11T02:24:25;4.88;;;4.47;;
32236;SDS011;18726;44.732;10.550;2022-07-11T02:27:28;6.78;;;3.90;;
32236;SDS011;18726;44.732;10.550;2022-07-11T02:30:32;4.50;;;4.07;;
32236;SDS011;18726;44.732;10.550;2022-07-11T02:33:36;5.18;;;4.68;;
32236;SDS011;18726;44.732;10.550;2022-07-11T02:36:40;15.02;;;5.50;;
32236;SDS011;18726;44.732;10.550;2022-07-11T02:39:43;6.07;;;4.63;;
32236;SDS011;18726;44.732;10.550;2022-07-11T02:42:47;6.05;;;4.47;;
32236;SDS011;18726;44.732;10.550;2022-07-11T02:45:51;5.40;;;4.43;;
32236;SDS011;18726;44.732;10.550;2022-07-11T02:48:55;4.82;;;4.32;;
32236;SDS011;18726;44.732;10.550;2022-07-11T02:52:00;4.95;;;4.47;;
32236;SDS011;18726;44.732;10.550;2022-07-11T02:55:03;4.70;;;4.30;;
32236;SDS011;18726;44.732;10.550;2022-07-11T02:58:07;4.70;;;4.32;;
32236;SDS011;18726;44.732;10.550;2022-07-11T03:01:11;4.57;;;4.20;;
32236;SDS011;18726;44.732;10.550;2022-07-11T03:04:15;6.15;;;3.92;;
32236;SDS011;18726;44.732;10.550;2022-07-11T03:07:19;5.95;;;4.95;;
32236;SDS011;18726;44.732;10.550;2022-07-11T03:10:22;5.38;;;4.53;;
32236;SDS011;18726;44.732;10.550;2022-07-11T03:13:26;5.60;;;5.00;;
32236;SDS011;18726;44.732;10.550;2022-07-11T03:16:30;7.18;;;4.60;;
32236;SDS011;18726;44.732;10.550;2022-07-11T03:19:34;5.75;;;4.50;;
32236;SDS011;18726;44.732;10.550;2022-07-11T03:22:37;4.68;;;4.28;;
32236;SDS011;18726;44.732;10.550;2022-07-11T03:25:41;5.45;;;4.97;;
32236;SDS011;18726;44.732;10.550;2022-07-11T03:28:44;5.50;;;4.90;;
32236;SDS011;18726;44.732;10.550;2022-07-11T03:31:48;6.35;;;5.85;;
32236;SDS011;18726;44.732;10.550;2022-07-11T03:34:52;5.88;;;5.35;;
32236;SDS011;18726;44.732;10.550;2022-07-11T03:38:17;9.82;;;5.55;;
32236;SDS011;18726;44.732;10.550;2022-07-11T03:41:22;7.00;;;6.28;;
32236;SDS011;18726;44.732;10.550;2022-07-11T03:44:26;9.02;;;5.45;;
32236;SDS011;18726;44.732;10.550;2022-07-11T03:47:29;7.95;;;5.90;;
32236;SDS011;18726;44.732;10.550;2022-07-11T03:50:34;6.13;;;4.68;;
32236;SDS011;18726;44.732;10.550;2022-07-11T03:53:38;10.38;;;7.15;;
32236;SDS011;18726;44.732;10.550;2022-07-11T03:56:41;5.63;;;5.13;;
32236;SDS011;18726;44.732;10.550;2022-07-11T03:59:45;6.38;;;5.25;;
32236;SDS011;18726;44.732;10.550;2022-07-11T04:02:49;6.97;;;5.38;;
32236;SDS011;18726;44.732;10.550;2022-07-11T04:05:53;6.38;;;5.57;;
32236;SDS011;18726;44.732;10.550;2022-07-11T04:08:57;7.28;;;6.30;;
32236;SDS011;18726;44.732;10.550;2022-07-11T04:12:01;6.45;;;4.65;;
32236;SDS011;18726;44.732;10.550;2022-07-11T04:15:04;4.75;;;4.20;;
32236;SDS011;18726;44.732;10.550;2022-07-11T04:18:10;5.32;;;4.93;;
32236;SDS011;18726;44.732;10.550;2022-07-11T04:21:13;5.53;;;5.00;;
32236;SDS011;18726;44.732;10.550;2022-07-11T04:24:17;7.35;;;6.20;;
32236;SDS011;18726;44.732;10.550;2022-07-11T04:27:20;8.18;;;5.53;;
32236;SDS011;18726;44.732;10.550;2022-07-11T04:30:23;6.82;;;6.22;;
32236;SDS011;18726;44.732;10.550;2022-07-11T04:33:27;6.38;;;5.80;;
32236;SDS011;18726;44.732;10.550;2022-07-11T04:36:30;8.20;;;5.60;;
32236;SDS011;18726;44.732;10.550;2022-07-11T04:39:33;5.00;;;4.50;;
32236;SDS011;18726;44.732;10.550;2022-07-11T04:42:37;8.45;;;3.35;;
32236;SDS011;18726;44.732;10.550;2022-07-11T04:45:40;3.42;;;3.13;;
32236;SDS011;18726;44.732;10.550;2022-07-11T04:48:44;3.22;;;2.92;;
32236;SDS011;18726;44.732;10.550;2022-07-11T04:51:48;3.78;;;2.85;;
32236;SDS011;18726;44.732;10.550;2022-07-11T04:54:51;3.40;;;2.40;;
32236;SDS011;18726;44.732;10.550;2022-07-11T04:57:56;3.83;;;3.17;;
32236;SDS011;18726;44.732;10.550;2022-07-11T05:01:00;5.05;;;3.13;;
32236;SDS011;18726;44.732;10.550;2022-07-11T05:04:04;2.50;;;2.30;;
32236;SDS011;18726;44.732;10.550;2022-07-11T05:07:07;3.15;;;2.20;;
32236;SDS011;18726;44.732;10.550;2022-07-11T05:10:11;2.45;;;2.05;;
32236;SDS011;18726;44.732;10.550;2022-07-11T05:13:15;3.28;;;2.20;;
32236;SDS011;18726;44.732;10.550;2022-07-11T05:16:19;4.65;;;2.08;;
32236;SDS011;18726;44.732;10.550;2022-07-11T05:19:22;2.50;;;1.90;;
32236;SDS011;18726;44.732;10.550;2022-07-11T05:22:25;3.95;;;2.53;;
32236;SDS011;18726;44.732;10.550;2022-07-11T05:25:30;10.07;;;2.60;;
32236;SDS011;18726;44.732;10.550;2022-07-11T05:28:33;6.47;;;2.50;;
32236;SDS011;18726;44.732;10.550;2022-07-11T05:31:37;6.43;;;2.33;;
32236;SDS011;18726;44.732;10.550;2022-07-11T05:34:40;10.32;;;3.10;;
32236;SDS011;18726;44.732;10.550;2022-07-11T05:37:44;4.75;;;1.95;;
32236;SDS011;18726;44.732;10.550;2022-07-11T05:40:48;2.33;;;1.70;;
32236;SDS011;18726;44.732;10.550;2022-07-11T05:43:51;5.35;;;2.72;;
32236;SDS011;18726;44.732;10.550;2022-07-11T05:47:01;3.30;;;2.30;;
32236;SDS011;18726;44.732;10.550;2022-07-11T05:50:06;5.97;;;2.60;;
32236;SDS011;18726;44.732;10.550;2022-07-11T05:53:10;11.68;;;3.75;;
32236;SDS011;18726;44.732;10.550;2022-07-11T05:56:14;4.28;;;3.85;;
32236;SDS011;18726;44.732;10.550;2022-07-11T05:59:17;6.72;;;3.72;;
32236;SDS011;18726;44.732;10.550;2022-07-11T06:02:21;10.68;;;3.83;;
32236;SDS011;18726;44.732;10.550;2022-07-11T06:05:25;3.05;;;2.83;;
32236;SDS011;18726;44.732;10.550;2022-07-11T06:08:29;5.82;;;4.18;;
32236;SDS011;18726;44.732;10.550;2022-07-11T06:11:46;5.32;;;4.18;;
32236;SDS011;18726;44.732;10.550;2022-07-11T06:14:50;6.22;;;5.22;;
32236;SDS011;18726;44.732;10.550;2022-07-11T06:17:53;4.97;;;3.30;;
32236;SDS011;18726;44.732;10.550;2022-07-11T06:20:56;6.75;;;3.40;;
32236;SDS011;18726;44.732;10.550;2022-07-11T06:24:00;6.10;;;4.45;;
32236;SDS011;18726;44.732;10.550;2022-07-11T06:27:04;4.93;;;4.53;;
32236;SDS011;18726;44.732;10.550;2022-07-11T06:30:08;7.03;;;5.00;;
32236;SDS011;18726;44.732;10.550;2022-07-11T06:33:12;7.75;;;5.30;;
32236;SDS011;18726;44.732;10.550;2022-07-11T06:36:19;5.93;;;4.82;;
32236;SDS011;18726;44.732;10.550;2022-07-11T06:39:24;8.27;;;5.82;;
32236;SDS011;18726;44.732;10.550;2022-07-11T06:42:27;6.68;;;6.05;;
32236;SDS011;18726;44.732;10.550;2022-07-11T06:45:32;6.90;;;6.25;;
32236;SDS011;18726;44.732;10.550;2022-07-11T06:48:36;5.55;;;5.05;;
32236;SDS011;18726;44.732;10.550;2022-07-11T06:51:40;6.60;;;5.80;;
32236;SDS011;18726;44.732;10.550;2022-07-11T06:54:43;9.90;;;5.90;;
32236;SDS011;18726;44.732;10.550;2022-07-11T06:57:47;7.28;;;5.30;;
32236;SDS011;18726;44.732;10.550;2022-07-11T07:00:51;7.03;;;6.35;;
32236;SDS011;18726;44.732;10.550;2022-07-11T07:03:54;6.97;;;6.13;;
32236;SDS011;18726;44.732;10.550;2022-07-11T07:06:58;7.60;;;5.75;;
32236;SDS011;18726;44.732;10.550;2022-07-11T07:10:03;11.13;;;6.07;;
32236;SDS011;18726;44.732;10.550;2022-07-11T07:13:07;8.52;;;4.70;;
32236;SDS011;18726;44.732;10.550;2022-07-11T07:16:11;7.10;;;5.53;;
32236;SDS011;18726;44.732;10.550;2022-07-11T07:19:15;6.47;;;5.32;;
32236;SDS011;18726;44.732;10.550;2022-07-11T07:22:19;6.43;;;5.80;;
32236;SDS011;18726;44.732;10.550;2022-07-11T07:25:22;7.15;;;4.55;;
32236;SDS011;18726;44.732;10.550;2022-07-11T07:28:26;5.45;;;4.22;;
32236;SDS011;18726;44.732;10.550;2022-07-11T07:31:31;5.18;;;3.88;;
32236;SDS011;18726;44.732;10.550;2022-07-11T07:34:34;6.28;;;4.00;;
32236;SDS011;18726;44.732;10.550;2022-07-11T07:37:38;6.45;;;3.65;;
32236;SDS011;18726;44.732;10.550;2022-07-11T07:40:41;4.53;;;3.90;;
32236;SDS011;18726;44.732;10.550;2022-07-11T07:43:45;8.55;;;3.40;;
32236;SDS011;18726;44.732;10.550;2022-07-11T07:46:51;4.85;;;3.50;;
32236;SDS011;18726;44.732;10.550;2022-07-11T07:49:55;6.82;;;3.35;;
32236;SDS011;18726;44.732;10.550;2022-07-11T07:53:00;6.28;;;3.63;;
32236;SDS011;18726;44.732;10.550;2022-07-11T07:56:06;5.50;;;4.22;;
32236;SDS011;18726;44.732;10.550;2022-07-11T07:59:10;7.18;;;4.22;;
32236;SDS011;18726;44.732;10.550;2022-07-11T08:02:13;4.80;;;4.18;;
32236;SDS011;18726;44.732;10.550;2022-07-11T08:05:17;6.15;;;4.10;;
32236;SDS011;18726;44.732;10.550;2022-07-11T08:08:21;4.00;;;3.45;;
32236;SDS011;18726;44.732;10.550;2022-07-11T08:11:25;4.03;;;3.08;;
32236;SDS011;18726;44.732;10.550;2022-07-11T08:14:29;7.30;;;3.63;;
32236;SDS011;18726;44.732;10.550;2022-07-11T08:17:34;6.50;;;3.47;;
32236;SDS011;18726;44.732;10.550;2022-07-11T08:20:37;3.38;;;3.05;;
32236;SDS011;18726;44.732;10.550;2022-07-11T08:23:41;5.25;;;3.28;;
32236;SDS011;18726;44.732;10.550;2022-07-11T08:26:45;3.92;;;3.22;;
32236;SDS011;18726;44.732;10.550;2022-07-11T08:29:48;4.80;;;3.22;;
32236;SDS011;18726;44.732;10.550;2022-07-11T08:32:52;9.80;;;3.10;;
32236;SDS011;18726;44.732;10.550;2022-07-11T08:35:56;3.92;;;3.28;;
32236;SDS011;18726;44.732;10.550;2022-07-11T08:39:00;8.52;;;3.42;;
32236;SDS011;18726;44.732;10.550;2022-07-11T08:42:03;5.45;;;3.03;;
32236;SDS011;18726;44.732;10.550;2022-07-11T08:45:11;7.40;;;3.72;;
32236;SDS011;18726;44.732;10.550;2022-07-11T08:48:18;4.28;;;3.08;;
32236;SDS011;18726;44.732;10.550;2022-07-11T08:51:23;4.93;;;2.95;;
32236;SDS011;18726;44.732;10.550;2022-07-11T08:54:29;4.18;;;3.10;;
32236;SDS011;18726;44.732;10.550;2022-07-11T08:57:33;4.65;;;2.53;;
32236;SDS011;18726;44.732;10.550;2022-07-11T09:00:38;4.60;;;3.13;;
32236;SDS011;18726;44.732;10.550;2022-07-11T09:03:43;4.45;;;2.78;;
32236;SDS011;18726;44.732;10.550;2022-07-11T09:06:48;4.03;;;3.03;;
32236;SDS011;18726;44.732;10.550;2022-07-11T09:09:52;4.05;;;2.45;;
32236;SDS011;18726;44.732;10.550;2022-07-11T09:16:08;5.97;;;2.75;;
32236;SDS011;18726;44.732;10.550;2022-07-11T09:19:25;7.38;;;2.85;;
32236;SDS011;18726;44.732;10.550;2022-07-11T09:22:31;6.22;;;2.47;;
32236;SDS011;18726;44.732;10.550;2022-07-11T09:25:55;3.38;;;2.40;;
32236;SDS011;18726;44.732;10.550;2022-07-11T09:29:12;3.38;;;2.75;;
32236;SDS011;18726;44.732;10.550;2022-07-11T09:32:17;2.92;;;2.70;;
32236;SDS011;18726;44.732;10.550;2022-07-11T09:35:22;4.43;;;3.17;;
32236;SDS011;18726;44.732;10.550;2022-07-11T09:38:27;3.00;;;2.38;;
32236;SDS011;18726;44.732;10.550;2022-07-11T09:41:35;5.38;;;3.22;;
32236;SDS011;18726;44.732;10.550;2022-07-11T09:44:39;5.60;;;2.97;;
32236;SDS011;18726;44.732;10.550;2022-07-11T09:47:45;3.00;;;2.65;;
32236;SDS011;18726;44.732;10.550;2022-07-11T09:50:54;5.18;;;3.28;;
32236;SDS011;18726;44.732;10.550;2022-07-11T09:54:04;2.95;;;2.33;;
32236;SDS011;18726;44.732;10.550;2022-07-11T09:57:12;3.22;;;2.97;;
32236;SDS011;18726;44.732;10.550;2022-07-11T10:00:15;3.25;;;2.22;;
32236;SDS011;18726;44.732;10.550;2022-07-11T10:03:20;4.88;;;2.55;;
32236;SDS011;18726;44.732;10.550;2022-07-11T10:06:28;3.20;;;2.72;;
32236;SDS011;18726;44.732;10.550;2022-07-11T10:09:31;4.35;;;2.45;;
32236;SDS011;18726;44.732;10.550;2022-07-11T10:12:35;5.78;;;2.63;;
32236;SDS011;18726;44.732;10.550;2022-07-11T10:15:39;4.88;;;2.42;;
32236;SDS011;18726;44.732;10.550;2022-07-11T10:18:55;3.35;;;2.65;;
32236;SDS011;18726;44.732;10.550;2022-07-11T10:22:41;3.15;;;2.85;;
32236;SDS011;18726;44.732;10.550;2022-07-11T10:32:57;4.60;;;2.60;;
32236;SDS011;18726;44.732;10.550;2022-07-11T10:36:02;3.45;;;2.13;;
32236;SDS011;18726;44.732;10.550;2022-07-11T10:39:19;2.75;;;2.47;;
32236;SDS011;18726;44.732;10.550;2022-07-11T10:42:46;5.43;;;2.58;;
32236;SDS011;18726;44.732;10.550;2022-07-11T10:52:20;5.25;;;2.30;;
32236;SDS011;18726;44.732;10.550;2022-07-11T10:56:02;6.15;;;2.53;;
32236;SDS011;18726;44.732;10.550;2022-07-11T11:02:15;5.00;;;2.55;;
32236;SDS011;18726;44.732;10.550;2022-07-11T11:05:39;6.00;;;2.45;;
32236;SDS011;18726;44.732;10.550;2022-07-11T11:08:52;3.90;;;2.72;;
32236;SDS011;18726;44.732;10.550;2022-07-11T11:11:56;3.05;;;2.75;;
32236;SDS011;18726;44.732;10.550;2022-07-11T11:15:31;5.65;;;2.25;;
32236;SDS011;18726;44.732;10.550;2022-07-11T11:18:36;2.72;;;2.13;;
32236;SDS011;18726;44.732;10.550;2022-07-11T11:21:59;5.78;;;2.72;;
32236;SDS011;18726;44.732;10.550;2022-07-11T11:25:04;5.43;;;3.13;;
32236;SDS011;18726;44.732;10.550;2022-07-11T11:28:08;5.53;;;3.10;;
32236;SDS011;18726;44.732;10.550;2022-07-11T11:31:12;5.28;;;2.63;;
32236;SDS011;18726;44.732;10.550;2022-07-11T11:34:16;5.05;;;3.28;;
32236;SDS011;18726;44.732;10.550;2022-07-11T11:37:20;4.40;;;3.08;;
32236;SDS011;18726;44.732;10.550;2022-07-11T11:40:24;3.00;;;2.72;;
32236;SDS011;18726;44.732;10.550;2022-07-11T11:43:27;3.70;;;3.20;;
32236;SDS011;18726;44.732;10.550;2022-07-11T11:46:31;3.88;;;2.20;;
32236;SDS011;18726;44.732;10.550;2022-07-11T11:49:40;4.00;;;2.95;;
32236;SDS011;18726;44.732;10.550;2022-07-11T11:52:45;4.30;;;3.10;;
32236;SDS011;18726;44.732;10.550;2022-07-11T11:55:49;5.10;;;2.80;;
32236;SDS011;18726;44.732;10.550;2022-07-11T11:58:54;2.85;;;2.53;;
32236;SDS011;18726;44.732;10.550;2022-07-11T12:01:59;7.05;;;2.70;;
32236;SDS011;18726;44.732;10.550;2022-07-11T12:05:07;4.80;;;2.58;;
32236;SDS011;18726;44.732;10.550;2022-07-11T12:08:23;2.83;;;2.63;;
32236;SDS011;18726;44.732;10.550;2022-07-11T12:11:30;3.92;;;2.55;;
32236;SDS011;18726;44.732;10.550;2022-07-11T12:14:34;3.00;;;2.40;;
32236;SDS011;18726;44.732;10.550;2022-07-11T12:17:38;4.30;;;2.38;;
32236;SDS011;18726;44.732;10.550;2022-07-11T12:20:42;4.10;;;2.38;;
32236;SDS011;18726;44.732;10.550;2022-07-11T12:23:46;2.45;;;2.25;;
32236;SDS011;18726;44.732;10.550;2022-07-11T12:26:50;6.03;;;2.85;;
32236;SDS011;18726;44.732;10.550;2022-07-11T12:29:54;2.85;;;2.58;;
32236;SDS011;18726;44.732;10.550;2022-07-11T12:33:01;4.35;;;2.55;;
32236;SDS011;18726;44.732;10.550;2022-07-11T12:36:13;4.45;;;2.55;;
32236;SDS011;18726;44.732;10.550;2022-07-11T12:39:26;3.90;;;2.28;;
32236;SDS011;18726;44.732;10.550;2022-07-11T12:42:33;3.50;;;2.30;;
32236;SDS011;18726;44.732;10.550;2022-07-11T12:45:37;5.13;;;2.50;;
32236;SDS011;18726;44.732;10.550;2022-07-11T12:48:41;3.05;;;1.75;;
32236;SDS011;18726;44.732;10.550;2022-07-11T12:51:45;3.22;;;2.17;;
32236;SDS011;18726;44.732;10.550;2022-07-11T12:54:49;2.22;;;2.03;;
32236;SDS011;18726;44.732;10.550;2022-07-11T13:01:10;2.58;;;2.33;;
32236;SDS011;18726;44.732;10.550;2022-07-11T13:07:36;3.25;;;2.47;;
32236;SDS011;18726;44.732;10.550;2022-07-11T13:10:59;4.18;;;2.28;;
32236;SDS011;18726;44.732;10.550;2022-07-11T13:14:06;4.18;;;2.10;;
32236;SDS011;18726;44.732;10.550;2022-07-11T13:17:29;2.80;;;2.60;;
32236;SDS011;18726;44.732;10.550;2022-07-11T13:20:33;5.30;;;2.85;;
32236;SDS011;18726;44.732;10.550;2022-07-11T13:23:38;4.22;;;2.22;;
32236;SDS011;18726;44.732;10.550;2022-07-11T13:26:41;3.05;;;2.75;;
32236;SDS011;18726;44.732;10.550;2022-07-11T13:29:46;3.47;;;2.50;;
32236;SDS011;18726;44.732;10.550;2022-07-11T13:32:50;3.38;;;2.25;;
32236;SDS011;18726;44.732;10.550;2022-07-11T13:35:54;2.03;;;1.90;;
32236;SDS011;18726;44.732;10.550;2022-07-11T13:38:59;2.65;;;2.40;;
32236;SDS011;18726;44.732;10.550;2022-07-11T13:42:02;6.13;;;2.60;;
32236;SDS011;18726;44.732;10.550;2022-07-11T13:45:07;4.13;;;2.20;;
32236;SDS011;18726;44.732;10.550;2022-07-11T13:48:12;4.70;;;2.63;;
32236;SDS011;18726;44.732;10.550;2022-07-11T13:51:15;2.70;;;2.35;;
32236;SDS011;18726;44.732;10.550;2022-07-11T13:54:19;2.58;;;2.20;;
32236;SDS011;18726;44.732;10.550;2022-07-11T13:57:22;2.72;;;2.17;;
32236;SDS011;18726;44.732;10.550;2022-07-11T14:00:27;4.53;;;2.80;;
32236;SDS011;18726;44.732;10.550;2022-07-11T14:03:33;3.17;;;2.30;;
32236;SDS011;18726;44.732;10.550;2022-07-11T14:06:36;3.90;;;2.70;;
32236;SDS011;18726;44.732;10.550;2022-07-11T14:09:40;2.47;;;2.25;;
32236;SDS011;18726;44.732;10.550;2022-07-11T14:12:44;2.60;;;2.35;;
32236;SDS011;18726;44.732;10.550;2022-07-11T14:15:48;8.35;;;2.80;;
32236;SDS011;18726;44.732;10.550;2022-07-11T14:18:53;3.25;;;2.35;;
32236;SDS011;18726;44.732;10.550;2022-07-11T14:21:57;2.83;;;2.40;;
32236;SDS011;18726;44.732;10.550;2022-07-11T14:25:00;5.85;;;2.60;;
32236;SDS011;18726;44.732;10.550;2022-07-11T14:28:04;2.50;;;2.30;;
32236;SDS011;18726;44.732;10.550;2022-07-11T14:31:09;3.45;;;2.50;;
32236;SDS011;18726;44.732;10.550;2022-07-11T14:34:13;3.33;;;2.60;;
32236;SDS011;18726;44.732;10.550;2022-07-11T14:37:16;4.40;;;2.75;;
32236;SDS011;18726;44.732;10.550;2022-07-11T14:40:20;2.75;;;2.28;;
32236;SDS011;18726;44.732;10.550;2022-07-11T14:43:24;5.18;;;2.30;;
32236;SDS011;18726;44.732;10.550;2022-07-11T14:46:28;4.00;;;2.50;;
32236;SDS011;18726;44.732;10.550;2022-07-11T14:49:32;3.70;;;2.60;;
32236;SDS011;18726;44.732;10.550;2022-07-11T14:52:36;4.75;;;2.30;;
32236;SDS011;18726;44.732;10.550;2022-07-11T14:55:41;5.47;;;2.67;;
32236;SDS011;18726;44.732;10.550;2022-07-11T14:58:45;5.60;;;2.42;;
32236;SDS011;18726;44.732;10.550;2022-07-11T15:01:49;3.30;;;2.08;;
32236;SDS011;18726;44.732;10.550;2022-07-11T15:04:53;6.00;;;2.40;;
32236;SDS011;18726;44.732;10.550;2022-07-11T15:07:56;4.10;;;2.33;;
32236;SDS011;18726;44.732;10.550;2022-07-11T15:11:18;2.50;;;2.30;;
32236;SDS011;18726;44.732;10.550;2022-07-11T15:14:41;3.03;;;2.58;;
32236;SDS011;18726;44.732;10.550;2022-07-11T15:17:44;7.30;;;3.13;;
32236;SDS011;18726;44.732;10.550;2022-07-11T15:20:48;3.22;;;2.30;;
32236;SDS011;18726;44.732;10.550;2022-07-11T15:28:11;3.70;;;2.25;;
32236;SDS011;18726;44.732;10.550;2022-07-11T15:31:15;3.50;;;2.30;;
32236;SDS011;18726;44.732;10.550;2022-07-11T15:34:19;7.97;;;2.88;;
32236;SDS011;18726;44.732;10.550;2022-07-11T15:37:22;3.83;;;2.50;;
32236;SDS011;18726;44.732;10.550;2022-07-11T15:40:26;2.70;;;2.50;;
32236;SDS011;18726;44.732;10.550;2022-07-11T15:43:33;3.30;;;2.88;;
32236;SDS011;18726;44.732;10.550;2022-07-11T15:46:37;6.60;;;2.90;;
32236;SDS011;18726;44.732;10.550;2022-07-11T15:49:41;3.40;;;2.53;;
32236;SDS011;18726;44.732;10.550;2022-07-11T15:52:44;4.95;;;2.83;;
32236;SDS011;18726;44.732;10.550;2022-07-11T15:55:49;5.72;;;2.38;;
32236;SDS011;18726;44.732;10.550;2022-07-11T15:58:53;5.35;;;2.40;;
32236;SDS011;18726;44.732;10.550;2022-07-11T16:01:59;5.60;;;2.60;;
32236;SDS011;18726;44.732;10.550;2022-07-11T16:05:03;3.90;;;2.35;;
32236;SDS011;18726;44.732;10.550;2022-07-11T16:08:07;7.60;;;2.45;;
32236;SDS011;18726;44.732;10.550;2022-07-11T16:11:10;3.47;;;2.55;;
32236;SDS011;18726;44.732;10.550;2022-07-11T16:14:14;7.40;;;2.58;;
32236;SDS011;18726;44.732;10.550;2022-07-11T16:17:18;3.53;;;2.55;;
32236;SDS011;18726;44.732;10.550;2022-07-11T16:20:22;7.47;;;2.90;;
32236;SDS011;18726;44.732;10.550;2022-07-11T16:23:26;5.40;;;3.05;;
32236;SDS011;18726;44.732;10.550;2022-07-11T16:26:30;4.60;;;2.67;;
32236;SDS011;18726;44.732;10.550;2022-07-11T16:29:33;6.97;;;3.00;;
32236;SDS011;18726;44.732;10.550;2022-07-11T16:32:36;5.93;;;2.80;;
32236;SDS011;18726;44.732;10.550;2022-07-11T16:35:40;3.92;;;2.28;;
32236;SDS011;18726;44.732;10.550;2022-07-11T16:38:44;7.70;;;2.63;;
32236;SDS011;18726;44.732;10.550;2022-07-11T16:42:08;5.78;;;2.55;;
32236;SDS011;18726;44.732;10.550;2022-07-11T16:45:31;3.67;;;2.58;;
32236;SDS011;18726;44.732;10.550;2022-07-11T16:48:34;5.13;;;2.40;;
32236;SDS011;18726;44.732;10.550;2022-07-11T16:51:39;8.38;;;2.40;;
32236;SDS011;18726;44.732;10.550;2022-07-11T16:54:43;3.42;;;2.47;;
32236;SDS011;18726;44.732;10.550;2022-07-11T16:57:48;7.68;;;2.28;;
32236;SDS011;18726;44.732;10.550;2022-07-11T17:00:51;5.45;;;2.80;;
32236;SDS011;18726;44.732;10.550;2022-07-11T17:03:55;2.83;;;2.28;;
32236;SDS011;18726;44.732;10.550;2022-07-11T17:06:58;3.90;;;2.67;;
32236;SDS011;18726;44.732;10.550;2022-07-11T17:10:11;4.25;;;2.72;;
32236;SDS011;18726;44.732;10.550;2022-07-11T17:13:15;5.15;;;2.67;;
32236;SDS011;18726;44.732;10.550;2022-07-11T17:16:18;7.65;;;2.83;;
32236;SDS011;18726;44.732;10.550;2022-07-11T17:19:22;8.60;;;3.05;;
32236;SDS011;18726;44.732;10.550;2022-07-11T17:22:25;4.85;;;2.50;;
32236;SDS011;18726;44.732;10.550;2022-07-11T17:25:29;6.80;;;3.50;;
32236;SDS011;18726;44.732;10.550;2022-07-11T17:28:33;3.83;;;2.58;;
32236;SDS011;18726;44.732;10.550;2022-07-11T17:31:36;8.05;;;2.42;;
32236;SDS011;18726;44.732;10.550;2022-07-11T17:34:40;8.20;;;2.30;;
32236;SDS011;18726;44.732;10.550;2022-07-11T17:37:43;3.45;;;2.42;;
32236;SDS011;18726;44.732;10.550;2022-07-11T17:40:48;7.43;;;3.00;;
32236;SDS011;18726;44.732;10.550;2022-07-11T17:43:52;6.57;;;2.97;;
32236;SDS011;18726;44.732;10.550;2022-07-11T17:46:59;6.82;;;2.40;;
32236;SDS011;18726;44.732;10.550;2022-07-11T17:50:02;6.13;;;2.78;;
32236;SDS011;18726;44.732;10.550;2022-07-11T17:53:06;7.35;;;2.72;;
32236;SDS011;18726;44.732;10.550;2022-07-11T17:56:10;6.20;;;2.17;;
32236;SDS011;18726;44.732;10.550;2022-07-11T17:59:14;15.50;;;2.63;;
32236;SDS011;18726;44.732;10.550;2022-07-11T18:02:18;4.95;;;2.65;;
32236;SDS011;18726;44.732;10.550;2022-07-11T18:05:22;8.88;;;2.38;;
32236;SDS011;18726;44.732;10.550;2022-07-11T18:08:26;8.30;;;2.55;;
32236;SDS011;18726;44.732;10.550;2022-07-11T18:11:31;7.38;;;2.95;;
32236;SDS011;18726;44.732;10.550;2022-07-11T18:14:35;9.70;;;3.35;;
32236;SDS011;18726;44.732;10.550;2022-07-11T18:17:38;12.95;;;2.78;;
32236;SDS011;18726;44.732;10.550;2022-07-11T18:20:43;7.10;;;2.50;;
32236;SDS011;18726;44.732;10.550;2022-07-11T18:23:47;6.85;;;2.63;;
32236;SDS011;18726;44.732;10.550;2022-07-11T18:26:52;3.75;;;2.70;;
32236;SDS011;18726;44.732;10.550;2022-07-11T18:29:56;3.47;;;2.45;;
32236;SDS011;18726;44.732;10.550;2022-07-11T18:33:00;4.90;;;2.53;;
32236;SDS011;18726;44.732;10.550;2022-07-11T18:36:04;2.85;;;2.22;;
32236;SDS011;18726;44.732;10.550;2022-07-11T18:39:07;5.85;;;3.03;;
32236;SDS011;18726;44.732;10.550;2022-07-11T18:42:30;5.63;;;4.63;;
32236;SDS011;18726;44.732;10.550;2022-07-11T18:45:33;6.72;;;2.67;;
32236;SDS011;18726;44.732;10.550;2022-07-11T18:48:37;6.38;;;2.50;;